sensor_id;sensor_type;location;lat;lon;timestamp;P1;durP1;ratioP1;P2;durP2;ratioP2
55539;SDS011;41384;51.418;7.286;2023-08-12T00:01:02;14.65;;;8.63;;
55539;SDS011;41384;51.418;7.286;2023-08-12T00:03:27;17.00;;;9.27;;
55539;SDS011;41384;51.418;7.286;2023-08-12T00:05:53;15.05;;;8.77;;
55539;SDS011;41384;51.418;7.286;2023-08-12T00:08:18;15.90;;;9.02;;
55539;SDS011;41384;51.418;7.286;2023-08-12T00:10:44;15.48;;;8.77;;
55539;SDS011;41384;51.418;7.286;2023-08-12T00:13:09;16.58;;;9.07;;
55539;SDS011;41384;51.418;7.286;2023-08-12T00:15:35;15.48;;;8.57;;
55539;SDS011;41384;51.418;7.286;2023-08-12T00:18:00;13.95;;;8.90;;
55539;SDS011;41384;51.418;7.286;2023-08-12T00:20:26;17.08;;;9.00;;
55539;SDS011;41384;51.418;7.286;2023-08-12T00:22:51;14.27;;;8.80;;
55539;SDS011;41384;51.418;7.286;2023-08-12T00:25:16;14.15;;;8.80;;
55539;SDS011;41384;51.418;7.286;2023-08-12T00:27:42;21.05;;;9.25;;
55539;SDS011;41384;51.418;7.286;2023-08-12T00:30:07;14.88;;;8.73;;
55539;SDS011;41384;51.418;7.286;2023-08-12T00:32:34;14.40;;;8.80;;
55539;SDS011;41384;51.418;7.286;2023-08-12T00:34:59;16.20;;;9.95;;
55539;SDS011;41384;51.418;7.286;2023-08-12T00:37:24;17.55;;;9.23;;
55539;SDS011;41384;51.418;7.286;2023-08-12T00:39:49;15.43;;;9.93;;
55539;SDS011;41384;51.418;7.286;2023-08-12T00:42:15;19.58;;;9.77;;
55539;SDS011;41384;51.418;7.286;2023-08-12T00:44:40;16.08;;;9.43;;
55539;SDS011;41384;51.418;7.286;2023-08-12T00:47:05;19.55;;;9.73;;
55539;SDS011;41384;51.418;7.286;2023-08-12T00:49:31;16.08;;;10.40;;
55539;SDS011;41384;51.418;7.286;2023-08-12T00:51:57;16.38;;;10.00;;
55539;SDS011;41384;51.418;7.286;2023-08-12T00:54:23;17.25;;;10.20;;
55539;SDS011;41384;51.418;7.286;2023-08-12T00:56:50;14.48;;;9.70;;
55539;SDS011;41384;51.418;7.286;2023-08-12T00:59:17;16.60;;;10.30;;
55539;SDS011;41384;51.418;7.286;2023-08-12T01:01:45;17.70;;;10.05;;
55539;SDS011;41384;51.418;7.286;2023-08-12T01:04:12;15.77;;;9.63;;
55539;SDS011;41384;51.418;7.286;2023-08-12T01:06:37;16.83;;;9.75;;
55539;SDS011;41384;51.418;7.286;2023-08-12T01:09:03;13.68;;;8.85;;
55539;SDS011;41384;51.418;7.286;2023-08-12T01:11:41;14.23;;;8.77;;
55539;SDS011;41384;51.418;7.286;2023-08-12T01:14:28;13.93;;;8.68;;
55539;SDS011;41384;51.418;7.286;2023-08-12T01:16:58;17.08;;;9.05;;
55539;SDS011;41384;51.418;7.286;2023-08-12T01:21:59;16.85;;;10.35;;
55539;SDS011;41384;51.418;7.286;2023-08-12T01:24:26;17.65;;;12.27;;
55539;SDS011;41384;51.418;7.286;2023-08-12T01:26:51;15.77;;;10.32;;
55539;SDS011;41384;51.418;7.286;2023-08-12T01:29:16;15.80;;;9.82;;
55539;SDS011;41384;51.418;7.286;2023-08-12T01:31:45;18.05;;;10.55;;
55539;SDS011;41384;51.418;7.286;2023-08-12T01:36:57;16.98;;;11.85;;
55539;SDS011;41384;51.418;7.286;2023-08-12T01:39:24;20.45;;;11.45;;
55539;SDS011;41384;51.418;7.286;2023-08-12T01:41:51;19.98;;;11.57;;
55539;SDS011;41384;51.418;7.286;2023-08-12T01:44:18;17.40;;;10.68;;
55539;SDS011;41384;51.418;7.286;2023-08-12T01:46:44;15.07;;;9.38;;
55539;SDS011;41384;51.418;7.286;2023-08-12T01:49:09;13.90;;;8.48;;
55539;SDS011;41384;51.418;7.286;2023-08-12T01:51:34;11.70;;;8.07;;
55539;SDS011;41384;51.418;7.286;2023-08-12T01:53:59;16.17;;;8.90;;
55539;SDS011;41384;51.418;7.286;2023-08-12T01:56:25;16.38;;;8.75;;
55539;SDS011;41384;51.418;7.286;2023-08-12T01:58:50;15.20;;;8.65;;
55539;SDS011;41384;51.418;7.286;2023-08-12T02:01:15;12.48;;;8.27;;
55539;SDS011;41384;51.418;7.286;2023-08-12T02:03:41;14.85;;;8.77;;
55539;SDS011;41384;51.418;7.286;2023-08-12T02:06:06;19.30;;;8.95;;
55539;SDS011;41384;51.418;7.286;2023-08-12T02:08:31;17.60;;;10.15;;
55539;SDS011;41384;51.418;7.286;2023-08-12T02:10:56;18.73;;;9.70;;
55539;SDS011;41384;51.418;7.286;2023-08-12T02:13:22;17.38;;;9.63;;
55539;SDS011;41384;51.418;7.286;2023-08-12T02:15:47;13.88;;;9.15;;
55539;SDS011;41384;51.418;7.286;2023-08-12T02:18:12;14.25;;;8.40;;
55539;SDS011;41384;51.418;7.286;2023-08-12T02:20:39;14.63;;;8.00;;
55539;SDS011;41384;51.418;7.286;2023-08-12T02:23:05;13.75;;;8.48;;
55539;SDS011;41384;51.418;7.286;2023-08-12T02:25:31;11.20;;;7.35;;
55539;SDS011;41384;51.418;7.286;2023-08-12T02:27:56;16.50;;;8.25;;
55539;SDS011;41384;51.418;7.286;2023-08-12T02:30:21;10.45;;;7.00;;
55539;SDS011;41384;51.418;7.286;2023-08-12T02:32:46;12.25;;;6.50;;
55539;SDS011;41384;51.418;7.286;2023-08-12T02:35:12;10.60;;;6.90;;
55539;SDS011;41384;51.418;7.286;2023-08-12T02:37:37;10.98;;;6.78;;
55539;SDS011;41384;51.418;7.286;2023-08-12T02:40:03;12.23;;;7.90;;
55539;SDS011;41384;51.418;7.286;2023-08-12T02:42:29;12.10;;;7.75;;
55539;SDS011;41384;51.418;7.286;2023-08-12T02:44:55;15.55;;;8.60;;
55539;SDS011;41384;51.418;7.286;2023-08-12T02:47:21;13.80;;;8.45;;
55539;SDS011;41384;51.418;7.286;2023-08-12T02:49:46;12.70;;;8.90;;
55539;SDS011;41384;51.418;7.286;2023-08-12T02:52:12;16.45;;;9.73;;
55539;SDS011;41384;51.418;7.286;2023-08-12T02:54:37;16.42;;;9.25;;
55539;SDS011;41384;51.418;7.286;2023-08-12T02:57:03;17.42;;;10.38;;
55539;SDS011;41384;51.418;7.286;2023-08-12T02:59:28;13.32;;;9.57;;
55539;SDS011;41384;51.418;7.286;2023-08-12T03:01:55;15.88;;;9.48;;
55539;SDS011;41384;51.418;7.286;2023-08-12T03:04:20;15.27;;;10.10;;
55539;SDS011;41384;51.418;7.286;2023-08-12T03:06:45;16.63;;;9.93;;
55539;SDS011;41384;51.418;7.286;2023-08-12T03:09:11;12.35;;;8.88;;
55539;SDS011;41384;51.418;7.286;2023-08-12T03:11:36;17.30;;;9.40;;
55539;SDS011;41384;51.418;7.286;2023-08-12T03:14:01;16.15;;;9.68;;
55539;SDS011;41384;51.418;7.286;2023-08-12T03:16:27;15.07;;;9.27;;
55539;SDS011;41384;51.418;7.286;2023-08-12T03:18:52;14.82;;;9.32;;
55539;SDS011;41384;51.418;7.286;2023-08-12T03:21:17;17.48;;;9.75;;
55539;SDS011;41384;51.418;7.286;2023-08-12T03:23:43;14.80;;;9.13;;
55539;SDS011;41384;51.418;7.286;2023-08-12T03:26:08;13.15;;;8.43;;
55539;SDS011;41384;51.418;7.286;2023-08-12T03:28:33;16.45;;;9.55;;
55539;SDS011;41384;51.418;7.286;2023-08-12T03:31:00;13.40;;;8.63;;
55539;SDS011;41384;51.418;7.286;2023-08-12T03:33:25;13.85;;;9.13;;
55539;SDS011;41384;51.418;7.286;2023-08-12T03:35:50;13.88;;;9.85;;
55539;SDS011;41384;51.418;7.286;2023-08-12T03:38:15;16.42;;;10.23;;
55539;SDS011;41384;51.418;7.286;2023-08-12T03:40:41;13.45;;;9.40;;
55539;SDS011;41384;51.418;7.286;2023-08-12T03:43:07;17.25;;;9.50;;
55539;SDS011;41384;51.418;7.286;2023-08-12T03:45:42;13.07;;;8.60;;
55539;SDS011;41384;51.418;7.286;2023-08-12T03:48:09;11.77;;;7.80;;
55539;SDS011;41384;51.418;7.286;2023-08-12T03:50:35;12.18;;;8.43;;
55539;SDS011;41384;51.418;7.286;2023-08-12T03:53:04;11.75;;;8.07;;
55539;SDS011;41384;51.418;7.286;2023-08-12T03:55:30;10.90;;;8.00;;
55539;SDS011;41384;51.418;7.286;2023-08-12T03:57:57;12.80;;;8.23;;
55539;SDS011;41384;51.418;7.286;2023-08-12T04:00:22;11.40;;;8.05;;
55539;SDS011;41384;51.418;7.286;2023-08-12T04:02:47;13.25;;;8.82;;
55539;SDS011;41384;51.418;7.286;2023-08-12T04:05:12;14.88;;;9.00;;
55539;SDS011;41384;51.418;7.286;2023-08-12T04:07:38;14.40;;;8.98;;
55539;SDS011;41384;51.418;7.286;2023-08-12T04:10:03;13.27;;;8.73;;
55539;SDS011;41384;51.418;7.286;2023-08-12T04:12:29;13.75;;;8.55;;
55539;SDS011;41384;51.418;7.286;2023-08-12T04:14:54;11.32;;;7.60;;
55539;SDS011;41384;51.418;7.286;2023-08-12T04:17:19;12.18;;;7.47;;
55539;SDS011;41384;51.418;7.286;2023-08-12T04:19:46;11.60;;;8.05;;
55539;SDS011;41384;51.418;7.286;2023-08-12T04:22:11;11.68;;;7.13;;
55539;SDS011;41384;51.418;7.286;2023-08-12T04:24:37;10.85;;;7.20;;
55539;SDS011;41384;51.418;7.286;2023-08-12T04:27:02;10.95;;;7.15;;
55539;SDS011;41384;51.418;7.286;2023-08-12T04:29:27;11.52;;;7.18;;
55539;SDS011;41384;51.418;7.286;2023-08-12T04:31:53;12.07;;;7.13;;
55539;SDS011;41384;51.418;7.286;2023-08-12T04:34:18;9.23;;;6.97;;
55539;SDS011;41384;51.418;7.286;2023-08-12T04:36:43;9.15;;;6.70;;
55539;SDS011;41384;51.418;7.286;2023-08-12T04:39:09;11.38;;;6.85;;
55539;SDS011;41384;51.418;7.286;2023-08-12T04:41:35;12.20;;;7.43;;
55539;SDS011;41384;51.418;7.286;2023-08-12T04:44:00;9.45;;;6.47;;
55539;SDS011;41384;51.418;7.286;2023-08-12T04:46:26;10.38;;;6.80;;
55539;SDS011;41384;51.418;7.286;2023-08-12T04:48:51;11.90;;;7.57;;
55539;SDS011;41384;51.418;7.286;2023-08-12T04:51:17;12.15;;;6.35;;
55539;SDS011;41384;51.418;7.286;2023-08-12T04:53:42;9.52;;;6.35;;
55539;SDS011;41384;51.418;7.286;2023-08-12T04:56:07;9.95;;;6.75;;
55539;SDS011;41384;51.418;7.286;2023-08-12T04:58:33;8.88;;;5.90;;
55539;SDS011;41384;51.418;7.286;2023-08-12T05:00:58;11.10;;;6.68;;
55539;SDS011;41384;51.418;7.286;2023-08-12T05:03:23;10.23;;;6.38;;
55539;SDS011;41384;51.418;7.286;2023-08-12T05:05:51;9.00;;;6.10;;
55539;SDS011;41384;51.418;7.286;2023-08-12T05:08:17;8.80;;;6.50;;
55539;SDS011;41384;51.418;7.286;2023-08-12T05:10:43;8.05;;;5.50;;
55539;SDS011;41384;51.418;7.286;2023-08-12T05:13:08;9.52;;;6.03;;
55539;SDS011;41384;51.418;7.286;2023-08-12T05:15:33;8.25;;;6.10;;
55539;SDS011;41384;51.418;7.286;2023-08-12T05:18:01;9.10;;;5.38;;
55539;SDS011;41384;51.418;7.286;2023-08-12T05:20:26;7.68;;;5.20;;
55539;SDS011;41384;51.418;7.286;2023-08-12T05:22:53;8.45;;;4.93;;
55539;SDS011;41384;51.418;7.286;2023-08-12T05:25:18;9.10;;;5.00;;
55539;SDS011;41384;51.418;7.286;2023-08-12T05:27:43;8.02;;;5.00;;
55539;SDS011;41384;51.418;7.286;2023-08-12T05:30:08;7.57;;;4.40;;
55539;SDS011;41384;51.418;7.286;2023-08-12T05:32:34;7.18;;;4.43;;
55539;SDS011;41384;51.418;7.286;2023-08-12T05:34:59;7.05;;;4.30;;
55539;SDS011;41384;51.418;7.286;2023-08-12T05:37:25;6.38;;;3.97;;
55539;SDS011;41384;51.418;7.286;2023-08-12T05:39:50;5.03;;;3.50;;
55539;SDS011;41384;51.418;7.286;2023-08-12T05:42:15;6.15;;;3.55;;
55539;SDS011;41384;51.418;7.286;2023-08-12T05:44:41;5.32;;;3.10;;
55539;SDS011;41384;51.418;7.286;2023-08-12T05:47:07;6.43;;;3.65;;
55539;SDS011;41384;51.418;7.286;2023-08-12T05:49:32;4.20;;;3.40;;
55539;SDS011;41384;51.418;7.286;2023-08-12T05:51:57;4.25;;;3.25;;
55539;SDS011;41384;51.418;7.286;2023-08-12T05:54:23;5.53;;;3.50;;
55539;SDS011;41384;51.418;7.286;2023-08-12T05:56:48;5.05;;;3.00;;
55539;SDS011;41384;51.418;7.286;2023-08-12T05:59:13;5.68;;;3.40;;
55539;SDS011;41384;51.418;7.286;2023-08-12T06:01:39;7.57;;;3.38;;
55539;SDS011;41384;51.418;7.286;2023-08-12T06:04:04;5.60;;;3.58;;
55539;SDS011;41384;51.418;7.286;2023-08-12T06:06:29;7.20;;;3.10;;
55539;SDS011;41384;51.418;7.286;2023-08-12T06:08:54;3.17;;;2.75;;
55539;SDS011;41384;51.418;7.286;2023-08-12T06:11:20;5.25;;;3.20;;
55539;SDS011;41384;51.418;7.286;2023-08-12T06:13:45;4.75;;;3.22;;
55539;SDS011;41384;51.418;7.286;2023-08-12T06:16:11;5.22;;;3.42;;
55539;SDS011;41384;51.418;7.286;2023-08-12T06:18:36;5.22;;;3.08;;
55539;SDS011;41384;51.418;7.286;2023-08-12T06:21:01;6.43;;;3.20;;
55539;SDS011;41384;51.418;7.286;2023-08-12T06:23:26;5.20;;;3.38;;
55539;SDS011;41384;51.418;7.286;2023-08-12T06:25:52;6.13;;;3.38;;
55539;SDS011;41384;51.418;7.286;2023-08-12T06:28:17;7.00;;;3.38;;
55539;SDS011;41384;51.418;7.286;2023-08-12T06:30:45;6.93;;;3.20;;
55539;SDS011;41384;51.418;7.286;2023-08-12T06:33:13;4.20;;;3.28;;
55539;SDS011;41384;51.418;7.286;2023-08-12T06:35:38;8.93;;;3.47;;
55539;SDS011;41384;51.418;7.286;2023-08-12T06:38:04;4.63;;;2.88;;
55539;SDS011;41384;51.418;7.286;2023-08-12T06:40:30;4.53;;;3.05;;
55539;SDS011;41384;51.418;7.286;2023-08-12T06:42:55;5.35;;;3.05;;
55539;SDS011;41384;51.418;7.286;2023-08-12T06:45:21;4.70;;;2.78;;
55539;SDS011;41384;51.418;7.286;2023-08-12T06:47:46;6.47;;;2.92;;
55539;SDS011;41384;51.418;7.286;2023-08-12T06:50:11;4.15;;;3.15;;
55539;SDS011;41384;51.418;7.286;2023-08-12T06:52:37;5.28;;;2.47;;
55539;SDS011;41384;51.418;7.286;2023-08-12T06:55:02;5.93;;;3.42;;
55539;SDS011;41384;51.418;7.286;2023-08-12T06:57:27;3.95;;;2.38;;
55539;SDS011;41384;51.418;7.286;2023-08-12T06:59:53;4.30;;;2.50;;
55539;SDS011;41384;51.418;7.286;2023-08-12T07:02:18;4.38;;;2.78;;
55539;SDS011;41384;51.418;7.286;2023-08-12T07:04:43;5.88;;;3.78;;
55539;SDS011;41384;51.418;7.286;2023-08-12T07:07:08;4.15;;;2.67;;
55539;SDS011;41384;51.418;7.286;2023-08-12T07:09:34;3.83;;;2.58;;
55539;SDS011;41384;51.418;7.286;2023-08-12T07:11:59;4.15;;;3.03;;
55539;SDS011;41384;51.418;7.286;2023-08-12T07:14:26;4.88;;;2.88;;
55539;SDS011;41384;51.418;7.286;2023-08-12T07:16:53;6.95;;;3.10;;
55539;SDS011;41384;51.418;7.286;2023-08-12T07:19:18;3.53;;;2.80;;
55539;SDS011;41384;51.418;7.286;2023-08-12T07:21:43;6.30;;;3.28;;
55539;SDS011;41384;51.418;7.286;2023-08-12T07:24:08;4.28;;;2.70;;
55539;SDS011;41384;51.418;7.286;2023-08-12T07:26:34;5.57;;;3.03;;
55539;SDS011;41384;51.418;7.286;2023-08-12T07:28:59;3.97;;;2.80;;
55539;SDS011;41384;51.418;7.286;2023-08-12T07:31:24;3.85;;;2.58;;
55539;SDS011;41384;51.418;7.286;2023-08-12T07:33:50;3.65;;;2.70;;
55539;SDS011;41384;51.418;7.286;2023-08-12T07:36:15;3.50;;;2.28;;
55539;SDS011;41384;51.418;7.286;2023-08-12T07:38:40;4.05;;;2.30;;
55539;SDS011;41384;51.418;7.286;2023-08-12T07:41:05;3.33;;;2.55;;
55539;SDS011;41384;51.418;7.286;2023-08-12T07:43:31;3.50;;;2.90;;
55539;SDS011;41384;51.418;7.286;2023-08-12T07:45:56;3.92;;;2.40;;
55539;SDS011;41384;51.418;7.286;2023-08-12T07:48:21;6.60;;;2.83;;
55539;SDS011;41384;51.418;7.286;2023-08-12T07:50:47;3.40;;;2.58;;
55539;SDS011;41384;51.418;7.286;2023-08-12T07:53:19;4.95;;;2.35;;
55539;SDS011;41384;51.418;7.286;2023-08-12T07:55:45;2.72;;;1.77;;
55539;SDS011;41384;51.418;7.286;2023-08-12T07:58:10;2.85;;;2.08;;
55539;SDS011;41384;51.418;7.286;2023-08-12T08:00:35;2.72;;;1.85;;
55539;SDS011;41384;51.418;7.286;2023-08-12T08:03:01;2.13;;;1.60;;
55539;SDS011;41384;51.418;7.286;2023-08-12T08:05:26;2.63;;;2.10;;
55539;SDS011;41384;51.418;7.286;2023-08-12T08:07:51;2.45;;;2.10;;
55539;SDS011;41384;51.418;7.286;2023-08-12T08:10:17;3.92;;;1.92;;
55539;SDS011;41384;51.418;7.286;2023-08-12T08:12:42;3.50;;;1.88;;
55539;SDS011;41384;51.418;7.286;2023-08-12T08:15:07;3.35;;;1.98;;
55539;SDS011;41384;51.418;7.286;2023-08-12T08:17:33;2.78;;;1.90;;
55539;SDS011;41384;51.418;7.286;2023-08-12T08:19:58;4.35;;;1.95;;
55539;SDS011;41384;51.418;7.286;2023-08-12T08:22:24;1.70;;;1.58;;
55539;SDS011;41384;51.418;7.286;2023-08-12T08:24:49;5.25;;;2.30;;
55539;SDS011;41384;51.418;7.286;2023-08-12T08:27:14;3.85;;;1.98;;
55539;SDS011;41384;51.418;7.286;2023-08-12T08:29:40;2.40;;;1.90;;
55539;SDS011;41384;51.418;7.286;2023-08-12T08:32:05;3.47;;;1.77;;
55539;SDS011;41384;51.418;7.286;2023-08-12T08:34:31;3.13;;;2.00;;
55539;SDS011;41384;51.418;7.286;2023-08-12T08:36:56;3.47;;;2.00;;
55539;SDS011;41384;51.418;7.286;2023-08-12T08:39:21;3.05;;;2.20;;
55539;SDS011;41384;51.418;7.286;2023-08-12T08:41:47;2.55;;;2.00;;
55539;SDS011;41384;51.418;7.286;2023-08-12T08:44:13;2.75;;;1.92;;
55539;SDS011;41384;51.418;7.286;2023-08-12T08:46:40;3.35;;;2.00;;
55539;SDS011;41384;51.418;7.286;2023-08-12T08:49:07;4.57;;;2.25;;
55539;SDS011;41384;51.418;7.286;2023-08-12T08:51:34;3.63;;;2.30;;
55539;SDS011;41384;51.418;7.286;2023-08-12T08:53:59;2.50;;;2.17;;
55539;SDS011;41384;51.418;7.286;2023-08-12T08:56:27;3.63;;;2.95;;
55539;SDS011;41384;51.418;7.286;2023-08-12T08:58:53;3.45;;;3.03;;
55539;SDS011;41384;51.418;7.286;2023-08-12T09:01:20;4.22;;;3.10;;
55539;SDS011;41384;51.418;7.286;2023-08-12T09:03:47;2.88;;;2.58;;
55539;SDS011;41384;51.418;7.286;2023-08-12T09:06:15;3.42;;;2.78;;
55539;SDS011;41384;51.418;7.286;2023-08-12T09:08:43;4.47;;;3.22;;
55539;SDS011;41384;51.418;7.286;2023-08-12T09:11:12;2.83;;;2.50;;
55539;SDS011;41384;51.418;7.286;2023-08-12T09:13:39;4.70;;;3.08;;
55539;SDS011;41384;51.418;7.286;2023-08-12T09:16:04;3.83;;;3.03;;
55539;SDS011;41384;51.418;7.286;2023-08-12T09:18:30;4.53;;;2.60;;
55539;SDS011;41384;51.418;7.286;2023-08-12T09:20:56;3.42;;;3.10;;
55539;SDS011;41384;51.418;7.286;2023-08-12T09:23:22;3.25;;;2.95;;
55539;SDS011;41384;51.418;7.286;2023-08-12T09:25:47;2.70;;;2.50;;
55539;SDS011;41384;51.418;7.286;2023-08-12T09:28:13;2.85;;;2.50;;
55539;SDS011;41384;51.418;7.286;2023-08-12T09:30:39;4.72;;;2.75;;
55539;SDS011;41384;51.418;7.286;2023-08-12T09:33:05;3.97;;;2.50;;
55539;SDS011;41384;51.418;7.286;2023-08-12T09:38:06;2.90;;;2.08;;
55539;SDS011;41384;51.418;7.286;2023-08-12T09:40:33;4.80;;;1.98;;
55539;SDS011;41384;51.418;7.286;2023-08-12T09:42:59;2.30;;;1.83;;
55539;SDS011;41384;51.418;7.286;2023-08-12T09:45:25;3.42;;;2.00;;
55539;SDS011;41384;51.418;7.286;2023-08-12T09:47:51;2.90;;;1.77;;
55539;SDS011;41384;51.418;7.286;2023-08-12T09:50:18;1.77;;;1.58;;
55539;SDS011;41384;51.418;7.286;2023-08-12T09:52:46;2.88;;;1.58;;
55539;SDS011;41384;51.418;7.286;2023-08-12T09:55:12;1.60;;;1.50;;
55539;SDS011;41384;51.418;7.286;2023-08-12T09:57:42;2.78;;;1.63;;
55539;SDS011;41384;51.418;7.286;2023-08-12T10:00:09;1.85;;;1.48;;
55539;SDS011;41384;51.418;7.286;2023-08-12T10:02:39;3.53;;;1.67;;
55539;SDS011;41384;51.418;7.286;2023-08-12T10:05:06;1.40;;;1.30;;
55539;SDS011;41384;51.418;7.286;2023-08-12T10:07:35;1.73;;;1.30;;
55539;SDS011;41384;51.418;7.286;2023-08-12T10:10:01;1.90;;;1.50;;
55539;SDS011;41384;51.418;7.286;2023-08-12T10:12:27;2.67;;;1.20;;
55539;SDS011;41384;51.418;7.286;2023-08-12T10:14:53;1.63;;;1.10;;
55539;SDS011;41384;51.418;7.286;2023-08-12T10:17:19;1.85;;;1.00;;
55539;SDS011;41384;51.418;7.286;2023-08-12T10:19:45;2.35;;;1.30;;
55539;SDS011;41384;51.418;7.286;2023-08-12T10:22:11;2.60;;;1.40;;
55539;SDS011;41384;51.418;7.286;2023-08-12T10:24:37;1.83;;;1.35;;
55539;SDS011;41384;51.418;7.286;2023-08-12T10:27:04;1.65;;;0.70;;
55539;SDS011;41384;51.418;7.286;2023-08-12T10:29:30;1.92;;;1.10;;
55539;SDS011;41384;51.418;7.286;2023-08-12T10:31:55;1.33;;;0.80;;
55539;SDS011;41384;51.418;7.286;2023-08-12T10:34:22;3.55;;;0.90;;
55539;SDS011;41384;51.418;7.286;2023-08-12T10:36:48;2.03;;;0.93;;
55539;SDS011;41384;51.418;7.286;2023-08-12T10:39:21;1.83;;;1.00;;
55539;SDS011;41384;51.418;7.286;2023-08-12T10:41:49;2.38;;;1.00;;
55539;SDS011;41384;51.418;7.286;2023-08-12T10:44:17;1.40;;;0.90;;
55539;SDS011;41384;51.418;7.286;2023-08-12T10:46:54;1.60;;;1.10;;
55539;SDS011;41384;51.418;7.286;2023-08-12T10:49:21;2.45;;;0.90;;
55539;SDS011;41384;51.418;7.286;2023-08-12T10:51:49;1.45;;;1.00;;
55539;SDS011;41384;51.418;7.286;2023-08-12T10:54:20;1.70;;;0.90;;
55539;SDS011;41384;51.418;7.286;2023-08-12T11:02:21;3.45;;;1.08;;
55539;SDS011;41384;51.418;7.286;2023-08-12T11:04:51;1.30;;;0.88;;
55539;SDS011;41384;51.418;7.286;2023-08-12T11:07:28;2.60;;;1.00;;
55539;SDS011;41384;51.418;7.286;2023-08-12T11:09:59;1.60;;;0.90;;
55539;SDS011;41384;51.418;7.286;2023-08-12T11:12:33;2.47;;;0.90;;
55539;SDS011;41384;51.418;7.286;2023-08-12T11:14:59;1.23;;;0.80;;
55539;SDS011;41384;51.418;7.286;2023-08-12T11:17:39;1.20;;;0.75;;
55539;SDS011;41384;51.418;7.286;2023-08-12T11:20:06;3.17;;;1.40;;
55539;SDS011;41384;51.418;7.286;2023-08-12T11:22:35;2.65;;;1.10;;
55539;SDS011;41384;51.418;7.286;2023-08-12T11:25:09;1.00;;;0.65;;
55539;SDS011;41384;51.418;7.286;2023-08-12T11:27:45;1.63;;;0.77;;
55539;SDS011;41384;51.418;7.286;2023-08-12T11:30:12;0.98;;;0.70;;
55539;SDS011;41384;51.418;7.286;2023-08-12T11:32:45;1.10;;;0.68;;
55539;SDS011;41384;51.418;7.286;2023-08-12T11:35:12;0.90;;;0.80;;
55539;SDS011;41384;51.418;7.286;2023-08-12T11:37:39;2.33;;;0.90;;
55539;SDS011;41384;51.418;7.286;2023-08-12T11:40:06;2.30;;;1.08;;
55539;SDS011;41384;51.418;7.286;2023-08-12T11:42:39;10.73;;;1.42;;
55539;SDS011;41384;51.418;7.286;2023-08-12T11:45:05;1.42;;;1.25;;
55539;SDS011;41384;51.418;7.286;2023-08-12T11:47:31;4.00;;;1.15;;
55539;SDS011;41384;51.418;7.286;2023-08-12T11:49:57;1.85;;;1.02;;
55539;SDS011;41384;51.418;7.286;2023-08-12T11:52:22;1.17;;;0.90;;
55539;SDS011;41384;51.418;7.286;2023-08-12T11:54:49;1.40;;;0.90;;
55539;SDS011;41384;51.418;7.286;2023-08-12T11:57:15;1.63;;;1.15;;
55539;SDS011;41384;51.418;7.286;2023-08-12T11:59:40;1.00;;;0.88;;
55539;SDS011;41384;51.418;7.286;2023-08-12T12:02:06;1.38;;;0.60;;
55539;SDS011;41384;51.418;7.286;2023-08-12T12:04:31;0.65;;;0.65;;
55539;SDS011;41384;51.418;7.286;2023-08-12T12:06:57;1.75;;;0.80;;
55539;SDS011;41384;51.418;7.286;2023-08-12T12:09:23;2.05;;;0.80;;
55539;SDS011;41384;51.418;7.286;2023-08-12T12:11:52;2.97;;;0.70;;
55539;SDS011;41384;51.418;7.286;2023-08-12T12:14:18;0.60;;;0.60;;
55539;SDS011;41384;51.418;7.286;2023-08-12T12:16:47;0.75;;;0.47;;
55539;SDS011;41384;51.418;7.286;2023-08-12T12:19:22;0.40;;;0.40;;
55539;SDS011;41384;51.418;7.286;2023-08-12T12:21:49;0.50;;;0.40;;
55539;SDS011;41384;51.418;7.286;2023-08-12T12:24:18;0.38;;;0.38;;
55539;SDS011;41384;51.418;7.286;2023-08-12T12:26:45;0.77;;;0.65;;
55539;SDS011;41384;51.418;7.286;2023-08-12T12:29:11;0.65;;;0.40;;
55539;SDS011;41384;51.418;7.286;2023-08-12T12:31:38;0.75;;;0.60;;
55539;SDS011;41384;51.418;7.286;2023-08-12T12:34:04;1.08;;;0.65;;
55539;SDS011;41384;51.418;7.286;2023-08-12T12:36:36;0.65;;;0.32;;
55539;SDS011;41384;51.418;7.286;2023-08-12T12:39:03;1.38;;;0.70;;
55539;SDS011;41384;51.418;7.286;2023-08-12T12:41:29;2.53;;;0.70;;
55539;SDS011;41384;51.418;7.286;2023-08-12T12:43:54;1.65;;;0.47;;
55539;SDS011;41384;51.418;7.286;2023-08-12T12:46:19;1.60;;;0.75;;
55539;SDS011;41384;51.418;7.286;2023-08-12T12:48:45;2.47;;;0.60;;
55539;SDS011;41384;51.418;7.286;2023-08-12T12:51:11;1.73;;;0.60;;
55539;SDS011;41384;51.418;7.286;2023-08-12T12:53:37;0.88;;;0.52;;
55539;SDS011;41384;51.418;7.286;2023-08-12T12:56:02;1.02;;;0.73;;
55539;SDS011;41384;51.418;7.286;2023-08-12T12:58:35;1.27;;;0.40;;
55539;SDS011;41384;51.418;7.286;2023-08-12T13:01:01;0.77;;;0.52;;
55539;SDS011;41384;51.418;7.286;2023-08-12T13:03:27;2.75;;;1.27;;
55539;SDS011;41384;51.418;7.286;2023-08-12T13:05:54;1.20;;;0.65;;
55539;SDS011;41384;51.418;7.286;2023-08-12T13:08:19;1.17;;;0.60;;
55539;SDS011;41384;51.418;7.286;2023-08-12T13:10:44;2.25;;;0.40;;
55539;SDS011;41384;51.418;7.286;2023-08-12T13:13:10;0.52;;;0.43;;
55539;SDS011;41384;51.418;7.286;2023-08-12T13:15:35;0.80;;;0.40;;
55539;SDS011;41384;51.418;7.286;2023-08-12T13:18:01;1.17;;;0.73;;
55539;SDS011;41384;51.418;7.286;2023-08-12T13:20:27;1.48;;;0.40;;
55539;SDS011;41384;51.418;7.286;2023-08-12T13:22:53;2.25;;;0.70;;
55539;SDS011;41384;51.418;7.286;2023-08-12T13:25:18;2.30;;;1.10;;
55539;SDS011;41384;51.418;7.286;2023-08-12T13:27:43;1.58;;;1.05;;
55539;SDS011;41384;51.418;7.286;2023-08-12T13:30:09;1.00;;;0.90;;
55539;SDS011;41384;51.418;7.286;2023-08-12T13:32:36;2.22;;;1.10;;
55539;SDS011;41384;51.418;7.286;2023-08-12T13:35:02;1.35;;;1.20;;
55539;SDS011;41384;51.418;7.286;2023-08-12T13:37:27;1.27;;;1.10;;
55539;SDS011;41384;51.418;7.286;2023-08-12T13:39:52;3.00;;;1.40;;
55539;SDS011;41384;51.418;7.286;2023-08-12T13:42:18;3.25;;;1.67;;
55539;SDS011;41384;51.418;7.286;2023-08-12T13:44:43;2.67;;;1.92;;
55539;SDS011;41384;51.418;7.286;2023-08-12T13:47:08;2.65;;;1.50;;
55539;SDS011;41384;51.418;7.286;2023-08-12T13:49:33;3.72;;;2.10;;
55539;SDS011;41384;51.418;7.286;2023-08-12T13:51:59;2.47;;;1.95;;
55539;SDS011;41384;51.418;7.286;2023-08-12T13:54:24;3.28;;;2.08;;
55539;SDS011;41384;51.418;7.286;2023-08-12T13:56:49;3.10;;;2.17;;
55539;SDS011;41384;51.418;7.286;2023-08-12T13:59:15;4.15;;;2.22;;
55539;SDS011;41384;51.418;7.286;2023-08-12T14:01:40;2.47;;;1.90;;
55539;SDS011;41384;51.418;7.286;2023-08-12T14:04:05;2.47;;;1.77;;
55539;SDS011;41384;51.418;7.286;2023-08-12T14:06:31;6.15;;;2.47;;
55539;SDS011;41384;51.418;7.286;2023-08-12T14:08:56;6.57;;;3.25;;
55539;SDS011;41384;51.418;7.286;2023-08-12T14:11:21;5.22;;;3.33;;
55539;SDS011;41384;51.418;7.286;2023-08-12T14:13:46;4.90;;;3.58;;
55539;SDS011;41384;51.418;7.286;2023-08-12T14:16:12;5.75;;;3.08;;
55539;SDS011;41384;51.418;7.286;2023-08-12T14:18:37;5.72;;;4.05;;
55539;SDS011;41384;51.418;7.286;2023-08-12T14:21:03;4.35;;;3.47;;
55539;SDS011;41384;51.418;7.286;2023-08-12T14:23:28;3.92;;;3.35;;
55539;SDS011;41384;51.418;7.286;2023-08-12T14:25:54;4.22;;;3.28;;
55539;SDS011;41384;51.418;7.286;2023-08-12T14:28:19;3.90;;;2.97;;
55539;SDS011;41384;51.418;7.286;2023-08-12T14:30:44;4.38;;;2.85;;
55539;SDS011;41384;51.418;7.286;2023-08-12T14:33:09;3.42;;;2.83;;
55539;SDS011;41384;51.418;7.286;2023-08-12T14:35:35;2.65;;;2.00;;
55539;SDS011;41384;51.418;7.286;2023-08-12T14:38:00;3.45;;;1.63;;
55539;SDS011;41384;51.418;7.286;2023-08-12T14:40:26;2.53;;;1.65;;
55539;SDS011;41384;51.418;7.286;2023-08-12T14:42:51;5.05;;;1.85;;
55539;SDS011;41384;51.418;7.286;2023-08-12T14:45:16;1.77;;;1.50;;
55539;SDS011;41384;51.418;7.286;2023-08-12T14:47:42;2.10;;;1.63;;
55539;SDS011;41384;51.418;7.286;2023-08-12T14:50:07;2.50;;;1.85;;